createdAt,value
2023-01-08T00:01:15.343Z,9.90
2023-01-08T00:03:43.722Z,9.80
2023-01-08T00:06:15.245Z,9.90
2023-01-08T00:08:44.241Z,9.80
2023-01-08T00:11:14.695Z,9.80
2023-01-08T00:13:43.003Z,9.90
2023-01-08T00:16:13.085Z,9.80
2023-01-08T00:18:41.576Z,9.80
2023-01-08T00:21:10.695Z,9.80
2023-01-08T00:23:39.207Z,9.80
2023-01-08T00:26:09.333Z,9.80
2023-01-08T00:28:39.814Z,9.80
2023-01-08T00:31:09.954Z,9.80
2023-01-08T00:33:39.296Z,9.80
2023-01-08T00:36:12.356Z,9.80
2023-01-08T00:38:40.604Z,9.80
2023-01-08T00:41:09.014Z,9.80
2023-01-08T00:43:38.794Z,9.80
2023-01-08T00:46:07.918Z,9.80
2023-01-08T00:48:38.767Z,9.80
2023-01-08T00:51:08.742Z,9.70
2023-01-08T00:53:38.178Z,9.80
2023-01-08T00:56:09.501Z,9.80
2023-01-08T00:58:39.632Z,9.70
2023-01-08T01:01:11.773Z,9.80
2023-01-08T01:03:40.438Z,9.70
2023-01-08T01:06:09.957Z,9.70
2023-01-08T01:08:38.259Z,9.70
2023-01-08T01:11:09.175Z,9.70
2023-01-08T01:13:38.883Z,9.70
2023-01-08T01:16:07.695Z,9.70
2023-01-08T01:18:36.368Z,9.70
2023-01-08T01:21:10.621Z,9.70
2023-01-08T01:23:38.912Z,9.70
2023-01-08T01:26:07.401Z,9.70
2023-01-08T01:28:35.707Z,9.70
2023-01-08T01:31:07.035Z,9.70
2023-01-08T01:33:35.397Z,9.70
2023-01-08T01:36:03.908Z,9.60
2023-01-08T01:38:32.332Z,9.60
2023-01-08T01:41:00.754Z,9.60
2023-01-08T01:43:40.275Z,9.60
2023-01-08T01:46:23.944Z,9.60
2023-01-08T01:48:56.522Z,9.60
2023-01-08T01:51:30.894Z,9.60
2023-01-08T01:54:00.204Z,9.60
2023-01-08T01:56:29.605Z,9.60
2023-01-08T01:58:58.030Z,9.60
2023-01-08T02:01:28.255Z,9.50
2023-01-08T02:03:56.702Z,9.50
2023-01-08T02:06:34.596Z,9.60
2023-01-08T02:09:05.137Z,9.60
2023-01-08T02:11:42.703Z,9.50
2023-01-08T02:14:18.647Z,9.50
2023-01-08T02:16:54.674Z,9.50
2023-01-08T02:19:37.657Z,9.50
2023-01-08T02:22:16.136Z,9.40
2023-01-08T02:24:55.334Z,9.50
2023-01-08T02:27:28.187Z,9.40
2023-01-08T02:29:58.212Z,9.40
2023-01-08T02:32:28.692Z,9.40
2023-01-08T02:34:57.027Z,9.40
2023-01-08T02:37:25.489Z,9.40
2023-01-08T02:40:04.364Z,9.40
2023-01-08T02:42:39.993Z,9.40
2023-01-08T02:45:17.003Z,9.40
2023-01-08T02:47:48.282Z,9.40
2023-01-08T02:50:22.880Z,9.30
2023-01-08T02:52:59.251Z,9.30
2023-01-08T02:55:29.533Z,9.30
2023-01-08T02:58:00.285Z,9.30
2023-01-08T03:00:28.989Z,9.30
2023-01-08T03:03:06.675Z,9.20
2023-01-08T03:05:35.847Z,9.20
2023-01-08T03:08:04.434Z,9.20
2023-01-08T03:10:33.640Z,9.20
2023-01-08T03:13:05.211Z,9.20
2023-01-08T03:15:37.791Z,9.20
2023-01-08T03:18:10.679Z,9.20
2023-01-08T03:20:40.192Z,9.10
2023-01-08T03:23:11.628Z,9.10
2023-01-08T03:25:42.539Z,9.10
2023-01-08T03:28:18.299Z,9.10
2023-01-08T03:30:48.733Z,9.10
2023-01-08T03:33:18.827Z,9.10
2023-01-08T03:35:50.425Z,9.10
2023-01-08T03:38:23.045Z,9.00
2023-01-08T03:40:55.930Z,9.00
2023-01-08T03:43:25.897Z,9.00
2023-01-08T03:45:58.521Z,9.00
2023-01-08T03:48:28.704Z,9.00
2023-01-08T03:50:57.186Z,9.00
2023-01-08T03:53:25.438Z,9.00
2023-01-08T03:55:53.672Z,9.00
2023-01-08T03:58:21.891Z,9.00
2023-01-08T04:00:51.804Z,9.00
2023-01-08T04:03:20.042Z,9.10
2023-01-08T04:05:48.269Z,9.10
2023-01-08T04:08:16.610Z,9.10
2023-01-08T04:10:44.830Z,9.10
2023-01-08T04:13:13.057Z,9.10
2023-01-08T04:15:41.350Z,9.10
2023-01-08T04:18:11.001Z,9.10
2023-01-08T04:20:39.213Z,9.10
2023-01-08T04:23:07.447Z,9.10
2023-01-08T04:25:35.702Z,9.10
2023-01-08T04:28:03.911Z,9.10
2023-01-08T04:30:32.532Z,9.10
2023-01-08T04:33:00.780Z,9.10
2023-01-08T04:35:30.425Z,9.10
2023-01-08T04:37:58.679Z,9.10
2023-01-08T04:40:26.924Z,9.10
2023-01-08T04:42:55.236Z,9.10
2023-01-08T04:45:23.476Z,9.10
2023-01-08T04:47:57.366Z,9.10
2023-01-08T04:50:25.724Z,9.10
2023-01-08T04:52:55.451Z,9.10
2023-01-08T04:55:23.647Z,9.10
2023-01-08T04:57:51.933Z,9.10
2023-01-08T05:00:20.313Z,9.10
2023-01-08T05:02:48.610Z,9.10
2023-01-08T05:05:17.118Z,9.10
2023-01-08T05:07:45.363Z,9.10
2023-01-08T05:10:14.989Z,9.10
2023-01-08T05:12:43.212Z,9.10
2023-01-08T05:15:11.900Z,9.10
2023-01-08T05:17:40.155Z,9.10
2023-01-08T05:20:09.715Z,9.10
2023-01-08T05:22:38.033Z,9.10
2023-01-08T05:25:07.115Z,9.20
2023-01-08T05:27:36.726Z,9.20
2023-01-08T05:30:05.609Z,9.20
2023-01-08T05:32:33.861Z,9.20
2023-01-08T05:35:02.173Z,9.30
2023-01-08T05:37:30.559Z,9.30
2023-01-08T05:39:58.939Z,9.30
2023-01-08T05:42:27.181Z,9.30
2023-01-08T05:44:56.800Z,9.30
2023-01-08T05:47:25.138Z,9.30
2023-01-08T05:49:53.408Z,9.30
2023-01-08T05:52:21.720Z,9.40
2023-01-08T05:54:50.030Z,9.40
2023-01-08T05:57:18.285Z,9.40
2023-01-08T05:59:46.539Z,9.40
2023-01-08T06:02:16.169Z,9.40
2023-01-08T06:04:44.962Z,9.40
2023-01-08T06:07:13.227Z,9.40
2023-01-08T06:09:41.468Z,9.40
2023-01-08T06:12:09.806Z,9.40
2023-01-08T06:14:38.032Z,9.40
2023-01-08T06:17:06.363Z,9.40
2023-01-08T06:19:35.973Z,9.40
2023-01-08T06:22:04.331Z,9.30
2023-01-08T06:24:32.754Z,9.30
2023-01-08T06:27:00.990Z,9.30
2023-01-08T06:29:29.249Z,9.30
2023-01-08T06:31:57.770Z,9.30
2023-01-08T06:34:26.111Z,9.30
2023-01-08T06:36:55.739Z,9.30
2023-01-08T06:39:24.172Z,9.30
2023-01-08T06:41:52.452Z,9.20
2023-01-08T06:44:20.692Z,9.20
2023-01-08T06:46:48.980Z,9.20
2023-01-08T06:49:17.572Z,9.20
2023-01-08T06:51:45.817Z,9.20
2023-01-08T06:54:15.472Z,9.20
2023-01-08T06:56:53.206Z,9.20
2023-01-08T06:59:21.820Z,9.20
2023-01-08T07:01:50.907Z,9.20
2023-01-08T07:04:19.774Z,9.20
2023-01-08T07:06:48.547Z,9.20
2023-01-08T07:09:18.377Z,9.20
2023-01-08T07:11:46.623Z,9.10
2023-01-08T07:14:15.794Z,9.10
2023-01-08T07:16:44.102Z,9.10
2023-01-08T07:19:12.690Z,9.10
2023-01-08T07:21:40.981Z,9.10
2023-01-08T07:24:09.754Z,9.10
2023-01-08T07:26:39.915Z,9.10
2023-01-08T07:29:08.299Z,9.10
2023-01-08T07:31:36.632Z,9.10
2023-01-08T07:34:05.137Z,9.10
2023-01-08T07:36:33.394Z,9.10
2023-01-08T07:39:01.932Z,9.10
2023-01-08T07:41:30.206Z,9.10
2023-01-08T07:43:59.807Z,9.10
2023-01-08T07:46:28.080Z,9.00
2023-01-08T07:48:57.496Z,9.00
2023-01-08T07:51:25.835Z,9.00
2023-01-08T07:53:56.337Z,9.00
2023-01-08T07:56:25.842Z,9.00
2023-01-08T07:58:54.109Z,9.00
2023-01-08T08:01:24.227Z,9.00
2023-01-08T08:03:52.612Z,9.00
2023-01-08T08:06:20.839Z,8.90
2023-01-08T08:08:49.207Z,8.90
2023-01-08T08:11:17.441Z,8.90
2023-01-08T08:13:47.506Z,8.90
2023-01-08T08:16:15.901Z,8.90
2023-01-08T08:18:45.567Z,8.90
2023-01-08T08:21:14.495Z,8.90
2023-01-08T08:23:43.065Z,8.90
2023-01-08T08:26:11.347Z,8.90
2023-01-08T08:28:39.628Z,8.90
2023-01-08T08:31:07.971Z,8.90
2023-01-08T08:33:36.375Z,8.80
2023-01-08T08:36:06.581Z,8.90
2023-01-08T08:38:35.099Z,8.90
2023-01-08T08:41:03.413Z,8.90
2023-01-08T08:43:31.630Z,8.80
2023-01-08T08:45:59.993Z,8.80
2023-01-08T08:48:28.311Z,8.80
2023-01-08T08:50:56.596Z,8.80
2023-01-08T08:53:27.683Z,8.80
2023-01-08T08:55:56.213Z,8.70
2023-01-08T08:58:24.767Z,8.80
2023-01-08T09:00:53.072Z,8.80
2023-01-08T09:03:21.649Z,8.80
2023-01-08T09:05:50.079Z,8.80
2023-01-08T09:08:18.356Z,8.80
2023-01-08T09:10:48.059Z,8.80
2023-01-08T09:13:16.455Z,8.70
2023-01-08T09:15:45.014Z,8.70
2023-01-08T09:18:15.807Z,8.70
2023-01-08T09:20:44.476Z,8.70
2023-01-08T09:23:12.728Z,8.70
2023-01-08T09:25:43.590Z,8.70
2023-01-08T09:28:14.226Z,8.70
2023-01-08T09:30:42.479Z,8.70
2023-01-08T09:33:11.417Z,8.70
2023-01-08T09:35:39.711Z,8.60
2023-01-08T09:38:08.003Z,8.60
2023-01-08T09:40:43.806Z,8.60
2023-01-08T09:43:18.866Z,8.60
2023-01-08T09:45:51.983Z,8.50
2023-01-08T09:48:23.805Z,8.50
2023-01-08T09:50:52.066Z,8.50
2023-01-08T09:53:20.761Z,8.50
2023-01-08T09:56:09.069Z,8.40
2023-01-08T09:58:42.186Z,8.40
2023-01-08T10:01:14.958Z,8.40
2023-01-08T10:03:46.549Z,8.40
2023-01-08T10:06:16.469Z,8.40
2023-01-08T10:11:20.131Z,8.30
2023-01-08T10:13:53.357Z,8.30
2023-01-08T10:16:28.757Z,8.30
2023-01-08T10:18:57.065Z,8.30
2023-01-08T10:21:30.967Z,8.30
2023-01-08T10:23:59.256Z,8.30
2023-01-08T10:26:30.048Z,8.30
2023-01-08T10:29:10.555Z,8.40
2023-01-08T10:31:47.909Z,8.40
2023-01-08T10:34:27.116Z,8.40
2023-01-08T10:36:56.289Z,8.50
2023-01-08T10:39:27.651Z,8.50
2023-01-08T10:41:59.873Z,8.50
2023-01-08T10:44:29.658Z,8.50
2023-01-08T10:47:01.381Z,8.50
2023-01-08T10:49:33.805Z,8.50
2023-01-08T10:52:02.134Z,8.50
2023-01-08T10:54:35.614Z,8.60
2023-01-08T10:57:04.496Z,8.60
2023-01-08T10:59:37.318Z,8.60
2023-01-08T11:02:13.612Z,8.60
2023-01-08T11:04:53.117Z,8.70
2023-01-08T11:07:24.672Z,8.70
2023-01-08T11:09:53.920Z,8.70
2023-01-08T11:12:38.862Z,8.70
2023-01-08T11:15:32.664Z,8.70
2023-01-08T11:18:20.187Z,8.70
2023-01-08T11:20:49.263Z,8.80
2023-01-08T11:23:20.836Z,8.80
2023-01-08T11:26:03.881Z,8.80
2023-01-08T11:28:43.655Z,8.80
2023-01-08T11:31:16.509Z,8.90
2023-01-08T11:33:49.160Z,8.90
2023-01-08T11:36:27.427Z,9.00
2023-01-08T11:38:55.682Z,9.00
2023-01-08T11:41:41.802Z,9.10
2023-01-08T11:44:30.890Z,9.20
2023-01-08T11:47:08.479Z,9.20
2023-01-08T11:49:53.147Z,9.30
2023-01-08T11:52:41.393Z,9.30
2023-01-08T11:55:25.204Z,9.30
2023-01-08T11:58:09.097Z,9.30
2023-01-08T12:00:53.688Z,9.40
2023-01-08T12:03:32.028Z,9.40
2023-01-08T12:06:11.415Z,9.40
2023-01-08T12:08:48.568Z,9.40
2023-01-08T12:11:24.705Z,9.40
2023-01-08T12:14:15.136Z,9.40
2023-01-08T12:17:06.184Z,9.40
2023-01-08T12:19:52.939Z,9.40
2023-01-08T12:22:34.329Z,9.40
2023-01-08T12:25:44.749Z,9.50
2023-01-08T12:28:27.589Z,9.40
2023-01-08T12:31:14.504Z,9.30
2023-01-08T12:33:49.457Z,9.30
2023-01-08T12:36:24.293Z,9.30
2023-01-08T12:38:56.835Z,9.30
2023-01-08T12:41:26.219Z,9.30
2023-01-08T12:43:58.425Z,9.30
2023-01-08T12:46:29.121Z,9.30
2023-01-08T12:48:58.594Z,9.30
2023-01-08T12:51:35.228Z,9.40
2023-01-08T12:54:11.310Z,9.40
2023-01-08T12:56:47.809Z,9.40
2023-01-08T12:59:32.191Z,9.40
2023-01-08T13:02:06.478Z,9.40
2023-01-08T13:04:42.659Z,9.40
2023-01-08T13:07:20.859Z,9.40
2023-01-08T13:09:57.050Z,9.40
2023-01-08T13:12:34.608Z,9.50
2023-01-08T13:15:03.419Z,9.40
2023-01-08T13:17:32.036Z,9.50
2023-01-08T13:20:03.135Z,9.50
2023-01-08T13:22:34.968Z,9.50
2023-01-08T13:25:29.721Z,9.50
2023-01-08T13:27:58.398Z,9.60
2023-01-08T13:30:42.405Z,9.60
2023-01-08T13:33:41.956Z,9.70
2023-01-08T13:36:22.648Z,9.70
2023-01-08T13:39:23.294Z,9.70
2023-01-08T13:42:23.873Z,9.80
2023-01-08T13:44:54.013Z,9.80
2023-01-08T13:47:31.035Z,9.80
2023-01-08T13:50:01.163Z,9.80
2023-01-08T13:52:35.815Z,9.80
2023-01-08T13:55:12.040Z,9.90
2023-01-08T13:57:44.393Z,9.90
2023-01-08T14:00:22.963Z,9.90
2023-01-08T14:02:51.307Z,9.90
2023-01-08T14:05:25.731Z,9.90
2023-01-08T14:07:54.117Z,9.90
2023-01-08T14:10:24.839Z,9.90
2023-01-08T14:12:53.446Z,9.90
2023-01-08T14:15:27.212Z,9.90
2023-01-08T14:17:56.848Z,9.90
2023-01-08T14:20:34.641Z,9.90
2023-01-08T14:23:04.600Z,9.90
2023-01-08T14:25:34.308Z,9.90
2023-01-08T14:28:05.100Z,10.00
2023-01-08T14:30:33.734Z,10.00
2023-01-08T14:33:02.922Z,10.00
2023-01-08T14:35:34.724Z,10.00
2023-01-08T14:38:05.786Z,10.00
2023-01-08T14:40:39.602Z,10.00
2023-01-08T14:43:13.195Z,10.10
2023-01-08T14:45:47.524Z,10.10
2023-01-08T14:48:20.408Z,10.10
2023-01-08T14:51:01.952Z,10.10
2023-01-08T14:53:34.063Z,10.20
2023-01-08T14:56:05.767Z,10.20
2023-01-08T14:58:38.400Z,10.30
2023-01-08T15:01:10.405Z,10.30
2023-01-08T15:03:40.560Z,10.40
2023-01-08T15:06:11.543Z,10.40
2023-01-08T15:08:41.953Z,10.40
2023-01-08T15:11:23.959Z,10.50
2023-01-08T15:13:54.199Z,10.50
2023-01-08T15:16:30.507Z,10.50
2023-01-08T15:19:05.340Z,10.50
2023-01-08T15:21:34.434Z,10.50
2023-01-08T15:24:03.814Z,10.50
2023-01-08T15:26:34.639Z,10.50
2023-01-08T15:29:06.458Z,10.40
2023-01-08T15:31:47.407Z,10.40
2023-01-08T15:34:17.305Z,10.40
2023-01-08T15:36:46.720Z,10.30
2023-01-08T15:39:15.181Z,10.30
2023-01-08T15:42:02.213Z,10.30
2023-01-08T15:44:30.422Z,10.20
2023-01-08T15:46:58.687Z,10.20
2023-01-08T15:49:26.982Z,10.10
2023-01-08T15:51:55.281Z,10.10
2023-01-08T15:54:26.480Z,10.00
2023-01-08T15:56:56.193Z,9.90
2023-01-08T15:59:24.399Z,9.90
2023-01-08T16:01:52.759Z,9.80
2023-01-08T16:04:21.049Z,9.80
2023-01-08T16:06:52.322Z,9.80
2023-01-08T16:09:20.571Z,9.70
2023-01-08T16:11:49.717Z,9.70
2023-01-08T16:14:19.391Z,9.60
2023-01-08T16:16:47.746Z,9.60
2023-01-08T16:19:16.241Z,9.50
2023-01-08T16:21:47.225Z,9.50
2023-01-08T16:24:15.921Z,9.40
2023-01-08T16:26:44.191Z,9.30
2023-01-08T16:29:12.521Z,9.30
2023-01-08T16:31:46.077Z,9.20
2023-01-08T16:34:15.016Z,9.20
2023-01-08T16:36:43.295Z,9.10
2023-01-08T16:39:13.399Z,9.10
2023-01-08T16:41:41.603Z,9.10
2023-01-08T16:44:20.019Z,9.10
2023-01-08T16:46:50.424Z,9.00
2023-01-08T16:49:18.836Z,9.00
2023-01-08T16:51:47.168Z,9.00
2023-01-08T16:54:16.511Z,8.90
2023-01-08T16:56:44.820Z,8.90
2023-01-08T16:59:22.729Z,8.80
2023-01-08T17:01:54.866Z,8.80
2023-01-08T17:04:23.137Z,8.80
2023-01-08T17:06:51.413Z,8.80
2023-01-08T17:09:19.661Z,8.70
2023-01-08T17:11:48.009Z,8.70
2023-01-08T17:14:16.299Z,8.60
2023-01-08T17:16:45.455Z,8.60
2023-01-08T17:19:15.308Z,8.60
2023-01-08T17:21:44.706Z,8.60
2023-01-08T17:24:13.269Z,8.60
2023-01-08T17:26:41.510Z,8.50
2023-01-08T17:29:09.873Z,8.50
2023-01-08T17:31:40.729Z,8.50
2023-01-08T17:34:12.531Z,8.50
2023-01-08T17:36:42.295Z,8.50
2023-01-08T17:39:12.726Z,8.50
2023-01-08T17:41:58.219Z,8.40
2023-01-08T17:44:26.620Z,8.40
2023-01-08T17:46:55.060Z,8.40
2023-01-08T17:49:23.292Z,8.40
2023-01-08T17:51:53.519Z,8.30
2023-01-08T17:54:22.520Z,8.40
2023-01-08T17:56:50.804Z,8.30
2023-01-08T17:59:20.711Z,8.30
2023-01-08T18:01:49.752Z,8.30
2023-01-08T18:04:18.324Z,8.30
2023-01-08T18:06:46.826Z,8.30
2023-01-08T18:09:16.727Z,8.30
2023-01-08T18:11:45.390Z,8.20
2023-01-08T18:14:15.116Z,8.20
2023-01-08T18:16:45.693Z,8.20
2023-01-08T18:19:15.833Z,8.20
2023-01-08T18:21:44.601Z,8.20
2023-01-08T18:24:13.113Z,8.10
2023-01-08T18:26:43.588Z,8.10
2023-01-08T18:29:11.876Z,8.10
2023-01-08T18:31:40.193Z,8.10
2023-01-08T18:34:10.127Z,8.10
2023-01-08T18:36:38.366Z,8.10
2023-01-08T18:39:06.673Z,8.10
2023-01-08T18:41:52.531Z,8.10
2023-01-08T18:44:22.368Z,8.10
2023-01-08T18:46:50.844Z,8.10
2023-01-08T18:49:20.269Z,8.10
2023-01-08T18:51:48.582Z,8.10
2023-01-08T18:54:16.947Z,8.10
2023-01-08T18:56:46.523Z,8.10
2023-01-08T18:59:14.786Z,8.10
2023-01-08T19:01:44.804Z,8.10
2023-01-08T19:04:17.101Z,8.10
2023-01-08T19:06:45.651Z,8.10
2023-01-08T19:09:15.493Z,8.10
2023-01-08T19:11:43.883Z,8.10
2023-01-08T19:14:13.611Z,8.00
2023-01-08T19:16:43.663Z,8.00
2023-01-08T19:19:13.367Z,8.00
2023-01-08T19:21:41.796Z,8.00
2023-01-08T19:24:10.218Z,8.00
2023-01-08T19:26:39.968Z,8.00
2023-01-08T19:29:08.622Z,8.00
2023-01-08T19:31:37.087Z,8.00
2023-01-08T19:34:06.207Z,8.00
2023-01-08T19:36:35.999Z,8.10
2023-01-08T19:39:07.604Z,8.00
2023-01-08T19:41:53.428Z,8.00
2023-01-08T19:44:24.613Z,8.00
2023-01-08T19:46:53.225Z,8.00
2023-01-08T19:49:21.468Z,8.00
2023-01-08T19:51:51.990Z,8.00
2023-01-08T19:54:22.214Z,8.00
2023-01-08T19:56:50.467Z,8.00
2023-01-08T19:59:18.815Z,8.00
2023-01-08T20:01:49.106Z,8.00
2023-01-08T20:04:18.891Z,8.00
2023-01-08T20:06:47.252Z,8.00
2023-01-08T20:09:17.187Z,8.00
2023-01-08T20:11:45.792Z,8.00
2023-01-08T20:14:14.140Z,8.00
2023-01-08T20:16:42.429Z,8.00
2023-01-08T20:19:11.472Z,8.00
2023-01-08T20:21:39.870Z,8.00
2023-01-08T20:24:12.101Z,8.00
2023-01-08T20:26:42.200Z,8.00
2023-01-08T20:29:11.379Z,8.00
2023-01-08T20:31:40.253Z,7.90
2023-01-08T20:34:11.856Z,7.90
2023-01-08T20:36:43.480Z,7.90
2023-01-08T20:39:18.127Z,7.90
2023-01-08T20:41:55.688Z,8.00
2023-01-08T20:44:29.530Z,7.90
2023-01-08T20:46:58.045Z,7.90
2023-01-08T20:49:26.847Z,7.90
2023-01-08T20:51:59.613Z,7.90
2023-01-08T20:54:29.628Z,7.90
2023-01-08T20:57:00.695Z,7.90
2023-01-08T20:59:30.018Z,7.80
2023-01-08T21:01:58.373Z,7.80
2023-01-08T21:04:26.787Z,7.80
2023-01-08T21:06:57.845Z,7.80
2023-01-08T21:09:26.199Z,7.80
2023-01-08T21:11:54.475Z,7.80
2023-01-08T21:14:24.178Z,7.80
2023-01-08T21:16:52.467Z,7.80
2023-01-08T21:19:20.865Z,7.80
2023-01-08T21:21:49.137Z,7.80
2023-01-08T21:24:17.405Z,7.80
2023-01-08T21:26:46.784Z,7.80
2023-01-08T21:29:17.103Z,7.80
2023-01-08T21:31:46.759Z,7.70
2023-01-08T21:34:15.270Z,7.70
2023-01-08T21:36:43.574Z,7.70
2023-01-08T21:39:12.540Z,7.70
2023-01-08T21:41:58.018Z,7.70
2023-01-08T21:44:41.019Z,7.70
2023-01-08T21:47:12.645Z,7.60
2023-01-08T21:49:41.097Z,7.60
2023-01-08T21:52:27.086Z,7.60
2023-01-08T21:54:58.102Z,7.60
2023-01-08T21:57:28.125Z,7.60
2023-01-08T21:59:57.126Z,7.60
2023-01-08T22:02:26.864Z,7.60
2023-01-08T22:04:56.692Z,7.60
2023-01-08T22:07:25.233Z,7.60
2023-01-08T22:09:53.843Z,7.60
2023-01-08T22:12:23.121Z,7.60
2023-01-08T22:14:53.359Z,7.60
2023-01-08T22:17:21.603Z,7.50
2023-01-08T22:19:51.443Z,7.50
2023-01-08T22:22:19.932Z,7.50
2023-01-08T22:24:48.244Z,7.50
2023-01-08T22:27:17.171Z,7.50
2023-01-08T22:29:45.458Z,7.50
2023-01-08T22:32:13.715Z,7.50
2023-01-08T22:34:42.138Z,7.50
2023-01-08T22:37:11.775Z,7.50
2023-01-08T22:39:40.043Z,7.50
2023-01-08T22:42:08.283Z,7.50
2023-01-08T22:44:36.674Z,7.50
2023-01-08T22:47:06.272Z,7.50
2023-01-08T22:49:34.709Z,7.50
2023-01-08T22:52:03.027Z,7.50
2023-01-08T22:54:32.640Z,7.50
2023-01-08T22:57:00.975Z,7.50
2023-01-08T22:59:29.456Z,7.50
2023-01-08T23:01:57.846Z,7.50
2023-01-08T23:04:26.490Z,7.50
2023-01-08T23:06:54.812Z,7.50
2023-01-08T23:09:23.021Z,7.50
2023-01-08T23:11:52.675Z,7.50
2023-01-08T23:14:21.042Z,7.50
2023-01-08T23:16:49.329Z,7.50
2023-01-08T23:19:17.585Z,7.50
2023-01-08T23:21:45.812Z,7.50
2023-01-08T23:24:15.068Z,7.50
2023-01-08T23:26:43.997Z,7.40
2023-01-08T23:29:13.778Z,7.50
2023-01-08T23:31:44.161Z,7.40
2023-01-08T23:34:12.702Z,7.40
2023-01-08T23:36:43.004Z,7.40
2023-01-08T23:39:12.014Z,7.40
2023-01-08T23:41:40.281Z,7.40
2023-01-08T23:44:12.319Z,7.40
2023-01-08T23:46:41.982Z,7.40
2023-01-08T23:49:11.311Z,7.40
2023-01-08T23:51:42.295Z,7.40
2023-01-08T23:54:10.724Z,7.40
2023-01-08T23:56:39.408Z,7.40
2023-01-08T23:59:07.811Z,7.40
